Time;durP1;ratioP1;P1;durP2;ratioP2;P2;SDS_P1;SDS_P2;PMS_P1;PMS_P2;Temp;Humidity;BMP_temperature;BMP_pressure;BME280_temperature;BME280_humidity;BME280_pressure;Samples;Min_cycle;Max_cycle;Signal;HPM_P1;HPM_P2
2024/01/05 00:01:56;;;;;;;17.33;4.22;;;;;;;-146.25;100.00;70816.00;5073067;28;20043;-63
2024/01/05 00:04:21;;;;;;;20.33;4.07;;;;;;;-146.25;100.00;70816.00;5067813;28;20081;-62
2024/01/05 00:06:47;;;;;;;21.65;4.47;;;;;;;-146.25;100.00;70816.00;5060488;28;20028;-62
2024/01/05 00:09:12;;;;;;;21.55;4.20;;;;;;;-146.25;100.00;70816.00;5072016;28;20044;-63
2024/01/05 00:11:37;;;;;;;20.55;4.45;;;;;;;-146.25;100.00;70816.00;5062671;28;20074;-62
2024/01/05 00:14:03;;;;;;;20.27;3.90;;;;;;;-146.25;100.00;70816.00;5071962;28;20043;-61
2024/01/05 00:16:28;;;;;;;20.17;4.25;;;;;;;-146.25;100.00;70816.00;5071419;28;20116;-61
2024/01/05 00:18:53;;;;;;;19.40;4.38;;;;;;;-146.25;100.00;70816.00;5072032;28;20092;-62
2024/01/05 00:21:27;;;;;;;19.40;4.03;;;;;;;-146.25;100.00;70816.00;5070885;28;20106;-62
2024/01/05 00:23:54;;;;;;;19.35;3.80;;;;;;;-146.25;100.00;70816.00;5071749;28;20129;-62
2024/01/05 00:26:19;;;;;;;17.00;3.85;;;;;;;-146.25;100.00;70816.00;5073327;28;20037;-61
2024/01/05 00:28:46;;;;;;;17.48;3.80;;;;;;;-146.25;100.00;70816.00;5069202;28;20043;-61
2024/01/05 00:31:12;;;;;;;18.38;3.88;;;;;;;-146.25;100.00;70816.00;5072480;28;20086;-61
2024/01/05 00:33:42;;;;;;;22.27;4.53;;;;;;;-146.25;100.00;70816.00;5075383;28;20098;-62
2024/01/05 00:36:11;;;;;;;22.30;5.28;;;;;;;-146.25;100.00;70816.00;5076500;28;20123;-62
2024/01/05 00:38:38;;;;;;;19.70;4.00;;;;;;;-146.25;100.00;70816.00;5076463;28;20060;-61
2024/01/05 00:41:04;;;;;;;19.42;4.25;;;;;;;-146.25;100.00;70816.00;5075027;28;20060;-61
2024/01/05 00:43:29;;;;;;;23.92;4.53;;;;;;;-146.25;100.00;70816.00;5076106;28;20060;-61
2024/01/05 00:45:55;;;;;;;20.90;4.85;;;;;;;-146.25;100.00;70816.00;5077212;28;20028;-61
2024/01/05 00:48:20;;;;;;;21.98;4.07;;;;;;;-146.25;100.00;70816.00;5073606;28;20051;-62
2024/01/05 00:50:45;;;;;;;22.75;4.30;;;;;;;-146.25;100.00;70816.00;5073603;28;20541;-61
2024/01/05 00:53:11;;;;;;;18.75;3.63;;;;;;;-146.25;100.00;70816.00;5073996;28;20525;-62
2024/01/05 00:55:36;;;;;;;21.38;3.88;;;;;;;-146.25;100.00;70816.00;5074804;28;20040;-61
2024/01/05 00:58:01;;;;;;;18.73;3.88;;;;;;;-146.25;100.00;70816.00;5074787;28;20032;-62
2024/01/05 01:00:27;;;;;;;16.98;4.00;;;;;;;-146.25;100.00;70816.00;5075663;28;20044;-62
2024/01/05 01:02:52;;;;;;;19.58;4.28;;;;;;;-146.25;100.00;70816.00;5076301;28;20064;-62
2024/01/05 01:05:18;;;;;;;18.27;3.90;;;;;;;-146.25;100.00;70816.00;5076184;28;20123;-62
2024/01/05 01:07:43;;;;;;;18.88;3.53;;;;;;;-146.25;100.00;70816.00;5078409;28;20032;-62
2024/01/05 01:10:09;;;;;;;19.50;3.65;;;;;;;-146.25;100.00;70816.00;5074380;28;20103;-63
2024/01/05 01:12:34;;;;;;;18.48;3.78;;;;;;;-146.25;100.00;70816.00;5078619;28;20048;-63
2024/01/05 01:14:59;;;;;;;18.23;4.20;;;;;;;-146.25;100.00;70816.00;5073761;28;20510;-63
2024/01/05 01:17:25;;;;;;;22.38;4.72;;;;;;;-146.25;100.00;70816.00;5073903;28;20063;-62
2024/01/05 01:19:50;;;;;;;19.27;4.10;;;;;;;-146.25;100.00;70816.00;5073327;28;20064;-62
2024/01/05 01:22:15;;;;;;;19.33;3.83;;;;;;;-146.25;100.00;70816.00;5076386;28;20037;-63
2024/01/05 01:24:41;;;;;;;20.48;3.88;;;;;;;-146.25;100.00;70816.00;5073585;28;20105;-63
2024/01/05 01:27:06;;;;;;;15.25;3.63;;;;;;;-146.25;100.00;70816.00;5072121;28;20039;-62
2024/01/05 01:29:31;;;;;;;17.92;3.50;;;;;;;-146.25;100.00;70816.00;5074653;28;20043;-61
2024/01/05 01:31:57;;;;;;;18.42;3.45;;;;;;;-146.25;100.00;70816.00;5075048;28;20043;-62
2024/01/05 01:34:22;;;;;;;21.10;3.70;;;;;;;-146.25;100.00;70816.00;5074632;28;20391;-62
2024/01/05 01:36:47;;;;;;;22.58;3.88;;;;;;;-146.25;100.00;70816.00;5073482;28;20043;-62
2024/01/05 01:39:12;;;;;;;21.90;3.85;;;;;;;-146.25;100.00;70816.00;5074953;28;20024;-62
2024/01/05 01:41:38;;;;;;;20.58;3.60;;;;;;;-146.25;100.00;70816.00;5075041;28;20107;-62
2024/01/05 01:44:03;;;;;;;19.50;3.67;;;;;;;-146.25;100.00;70816.00;5062886;28;20449;-62
2024/01/05 01:46:31;;;;;;;15.27;3.78;;;;;;;-146.25;100.00;70816.00;5071468;28;20044;-62
2024/01/05 01:48:57;;;;;;;17.65;3.22;;;;;;;-146.25;100.00;70816.00;5075132;28;20040;-61
2024/01/05 01:51:23;;;;;;;15.65;3.28;;;;;;;-146.25;100.00;70816.00;5074135;28;20361;-61
2024/01/05 01:53:48;;;;;;;19.05;3.47;;;;;;;-146.25;100.00;70816.00;5075298;28;20036;-61
2024/01/05 01:56:14;;;;;;;17.63;3.33;;;;;;;-146.25;100.00;70816.00;5074855;28;20119;-62
2024/01/05 01:58:42;;;;;;;15.88;3.53;;;;;;;-146.25;100.00;70816.00;5076908;28;20036;-61
2024/01/05 02:01:08;;;;;;;15.20;3.20;;;;;;;-146.25;100.00;70816.00;5075624;28;20056;-62
2024/01/05 02:03:34;;;;;;;17.02;3.08;;;;;;;-146.25;100.00;70816.00;5074663;28;20048;-62
2024/01/05 02:05:59;;;;;;;18.27;3.13;;;;;;;-146.25;100.00;70816.00;5075232;28;20131;-61
2024/01/05 02:08:25;;;;;;;16.08;3.05;;;;;;;-146.25;100.00;70816.00;5072939;28;20047;-62
2024/01/05 02:10:50;;;;;;;18.27;3.13;;;;;;;-146.25;100.00;70816.00;5072695;28;20070;-61
2024/01/05 02:13:15;;;;;;;16.92;3.30;;;;;;;-146.25;100.00;70816.00;5071037;28;20145;-62
2024/01/05 02:15:41;;;;;;;13.20;2.88;;;;;;;-146.25;100.00;70816.00;5077178;28;20098;-61
2024/01/05 02:18:11;;;;;;;18.13;3.20;;;;;;;-146.25;100.00;70816.00;5072593;28;20077;-62
2024/01/05 02:20:36;;;;;;;13.38;3.05;;;;;;;-146.25;100.00;70816.00;5073283;28;20596;-61
2024/01/05 02:23:07;;;;;;;15.07;3.03;;;;;;;-146.25;100.00;70816.00;5075666;28;20095;-62
2024/01/05 02:25:33;;;;;;;14.93;2.80;;;;;;;-146.25;100.00;70816.00;5074001;28;20087;-62
2024/01/05 02:27:58;;;;;;;15.60;3.65;;;;;;;-146.25;100.00;70816.00;5073678;28;20056;-62
2024/01/05 02:30:23;;;;;;;13.50;3.33;;;;;;;-146.25;100.00;70816.00;5062928;28;20459;-61
2024/01/05 02:32:49;;;;;;;16.42;3.20;;;;;;;-146.25;100.00;70816.00;5073668;28;20036;-61
2024/01/05 02:35:14;;;;;;;18.25;4.05;;;;;;;-146.25;100.00;70816.00;5072228;28;20035;-62
2024/01/05 02:37:43;;;;;;;15.93;3.38;;;;;;;-146.25;100.00;70816.00;5073532;28;20052;-63
2024/01/05 02:40:12;;;;;;;15.30;3.10;;;;;;;-146.25;100.00;70816.00;5073514;28;20040;-62
2024/01/05 02:42:39;;;;;;;18.38;3.40;;;;;;;-146.25;100.00;70816.00;5071413;28;20064;-61
2024/01/05 02:45:05;;;;;;;21.55;3.58;;;;;;;-146.25;100.00;70816.00;5075013;28;20035;-62
2024/01/05 02:47:30;;;;;;;14.82;3.03;;;;;;;-146.25;100.00;70816.00;5071817;28;20028;-62
2024/01/05 02:49:55;;;;;;;13.35;2.80;;;;;;;-146.25;100.00;70816.00;5073747;28;20056;-62
2024/01/05 02:52:20;;;;;;;15.13;3.17;;;;;;;-146.25;100.00;70816.00;5073567;28;20031;-62
2024/01/05 02:54:46;;;;;;;16.23;3.05;;;;;;;-146.25;100.00;70816.00;5074436;28;20039;-62
2024/01/05 02:57:11;;;;;;;14.88;3.10;;;;;;;-146.25;100.00;70816.00;5070987;28;20055;-62
2024/01/05 02:59:37;;;;;;;14.27;2.95;;;;;;;-146.25;100.00;70816.00;5074944;28;20044;-61
2024/01/05 03:02:02;;;;;;;12.82;3.63;;;;;;;-146.25;100.00;70816.00;5071045;28;20028;-62
2024/01/05 03:04:27;;;;;;;10.70;2.80;;;;;;;-146.25;100.00;70816.00;5072723;28;20380;-61
2024/01/05 03:06:53;;;;;;;16.67;3.00;;;;;;;-146.25;100.00;70816.00;5062950;28;20593;-61
2024/01/05 03:09:18;;;;;;;14.27;3.03;;;;;;;-146.25;100.00;70816.00;5072527;28;20147;-62
2024/01/05 03:11:43;;;;;;;13.82;2.70;;;;;;;-146.25;100.00;70816.00;5070809;28;20036;-61
2024/01/05 03:14:08;;;;;;;14.35;3.08;;;;;;;-146.25;100.00;70816.00;5074739;28;20033;-62
2024/01/05 03:16:34;;;;;;;15.73;3.22;;;;;;;-146.25;100.00;70816.00;5069950;28;20043;-62
2024/01/05 03:18:59;;;;;;;15.18;3.00;;;;;;;-146.25;100.00;70816.00;5073405;28;20040;-62
2024/01/05 03:21:24;;;;;;;12.05;2.63;;;;;;;-146.25;100.00;70816.00;5072498;28;20040;-61
2024/01/05 03:23:50;;;;;;;17.88;3.03;;;;;;;-146.25;100.00;70816.00;5071526;28;20056;-61
2024/01/05 03:26:15;;;;;;;13.85;2.70;;;;;;;-146.25;100.00;70816.00;5071018;28;20029;-61
2024/01/05 03:28:40;;;;;;;15.27;2.97;;;;;;;-146.25;100.00;70816.00;5075029;28;20126;-62
2024/01/05 03:31:15;;;;;;;12.13;2.47;;;;;;;-146.25;100.00;70816.00;5071718;28;20510;-63
2024/01/05 03:33:41;;;;;;;17.83;2.90;;;;;;;-146.25;100.00;70816.00;5071746;28;20040;-63
2024/01/05 03:36:06;;;;;;;16.95;3.53;;;;;;;-146.25;100.00;70816.00;5072285;28;20062;-62
2024/01/05 03:38:32;;;;;;;11.23;2.65;;;;;;;-146.25;100.00;70816.00;5072256;28;20059;-61
2024/01/05 03:40:57;;;;;;;14.57;3.15;;;;;;;-146.25;100.00;70816.00;5072500;28;20085;-62
2024/01/05 03:43:23;;;;;;;19.05;3.75;;;;;;;-146.25;100.00;70816.00;5062306;28;20035;-62
2024/01/05 03:45:49;;;;;;;14.60;2.85;;;;;;;-146.25;100.00;70816.00;5070772;28;20041;-61
2024/01/05 03:48:14;;;;;;;9.77;2.60;;;;;;;-146.25;100.00;70816.00;5070810;28;20036;-62
2024/01/05 03:50:40;;;;;;;11.05;2.53;;;;;;;-146.25;100.00;70816.00;5070873;28;20051;-62
2024/01/05 03:53:05;;;;;;;16.52;2.58;;;;;;;-146.25;100.00;70816.00;5070311;28;20089;-62
2024/01/05 03:55:30;;;;;;;13.13;3.00;;;;;;;-146.25;100.00;70816.00;5063208;28;20696;-62
2024/01/05 03:57:56;;;;;;;13.82;2.80;;;;;;;-146.25;100.00;70816.00;5071472;28;20415;-62
2024/01/05 04:00:21;;;;;;;15.55;2.60;;;;;;;-146.25;100.00;70816.00;5071852;28;20418;-63
2024/01/05 04:02:46;;;;;;;17.88;2.70;;;;;;;-146.25;100.00;70816.00;5073107;28;20506;-61
2024/01/05 04:05:11;;;;;;;13.82;2.70;;;;;;;-146.25;100.00;70816.00;5072321;28;20075;-61
2024/01/05 04:07:38;;;;;;;10.57;2.38;;;;;;;-146.25;100.00;70816.00;5071607;28;20028;-62
2024/01/05 04:10:04;;;;;;;11.07;2.53;;;;;;;-146.25;100.00;70816.00;5071367;28;20024;-62
2024/01/05 04:12:30;;;;;;;13.77;2.40;;;;;;;-146.25;100.00;70816.00;5073621;28;20062;-62
2024/01/05 04:14:55;;;;;;;13.57;3.10;;;;;;;-146.25;100.00;70816.00;5062601;28;20032;-62
2024/01/05 04:17:20;;;;;;;14.07;2.95;;;;;;;-146.25;100.00;70816.00;5071408;28;20568;-61
2024/01/05 04:19:45;;;;;;;11.68;2.30;;;;;;;-146.25;100.00;70816.00;5071314;28;20413;-62
2024/01/05 04:22:11;;;;;;;12.32;2.50;;;;;;;-146.25;100.00;70816.00;5074280;28;20098;-60
2024/01/05 04:24:36;;;;;;;10.77;2.30;;;;;;;-146.25;100.00;70816.00;5073914;28;20471;-62
2024/01/05 04:27:01;;;;;;;13.88;2.50;;;;;;;-146.25;100.00;70816.00;5072411;28;20414;-61
2024/01/05 04:29:27;;;;;;;14.07;2.63;;;;;;;-146.25;100.00;70816.00;5071044;28;20036;-60
2024/01/05 04:31:52;;;;;;;10.60;2.40;;;;;;;-146.25;100.00;70816.00;5072107;28;20036;-60
2024/01/05 04:34:17;;;;;;;14.50;3.13;;;;;;;-146.25;100.00;70816.00;5074652;28;20043;-60
2024/01/05 04:36:43;;;;;;;9.23;2.20;;;;;;;-146.25;100.00;70816.00;5071809;28;20040;-61
2024/01/05 04:39:09;;;;;;;16.10;2.75;;;;;;;-146.25;100.00;70816.00;5072320;28;20086;-61
2024/01/05 04:41:35;;;;;;;13.27;2.53;;;;;;;-146.25;100.00;70816.00;5071426;28;20360;-61
2024/01/05 04:44:00;;;;;;;14.73;2.65;;;;;;;-146.25;100.00;70816.00;5071617;28;20325;-60
2024/01/05 04:46:25;;;;;;;11.82;2.47;;;;;;;-146.25;100.00;70816.00;5072195;28;20495;-61
2024/01/05 04:48:50;;;;;;;12.35;2.53;;;;;;;-146.25;100.00;70816.00;5072998;28;20037;-61
2024/01/05 04:51:16;;;;;;;13.23;2.78;;;;;;;-146.25;100.00;70816.00;5073155;28;20044;-62
2024/01/05 04:53:41;;;;;;;13.70;2.55;;;;;;;-146.25;100.00;70816.00;5072129;28;20117;-60
2024/01/05 04:56:06;;;;;;;14.70;2.80;;;;;;;-146.25;100.00;70816.00;5071041;28;20051;-59
2024/01/05 04:58:32;;;;;;;14.32;2.55;;;;;;;-146.25;100.00;70816.00;5071009;28;20051;-60
2024/01/05 05:00:57;;;;;;;12.95;2.50;;;;;;;-146.25;100.00;70816.00;5073426;28;20102;-59
2024/01/05 05:03:24;;;;;;;9.57;2.25;;;;;;;-146.25;100.00;70816.00;5074662;28;20495;-60
2024/01/05 05:05:50;;;;;;;11.68;2.60;;;;;;;-146.25;100.00;70816.00;5070755;28;20025;-59
2024/01/05 05:08:15;;;;;;;12.20;2.28;;;;;;;-146.25;100.00;70816.00;5071552;28;20384;-61
2024/01/05 05:10:40;;;;;;;17.25;2.50;;;;;;;-146.25;100.00;70816.00;5073279;28;20043;-60
2024/01/05 05:13:06;;;;;;;14.05;2.60;;;;;;;-146.25;100.00;70816.00;5074764;28;20041;-60
2024/01/05 05:15:31;;;;;;;12.95;2.45;;;;;;;-146.25;100.00;70816.00;5071716;28;20119;-61
2024/01/05 05:17:56;;;;;;;11.85;2.60;;;;;;;-146.25;100.00;70816.00;5073785;28;20048;-61
2024/01/05 05:20:22;;;;;;;10.88;2.05;;;;;;;-146.25;100.00;70816.00;5076662;28;20052;-61
2024/01/05 05:22:48;;;;;;;12.52;2.67;;;;;;;-146.25;100.00;70816.00;5077522;28;20063;-59
2024/01/05 05:25:13;;;;;;;14.25;2.58;;;;;;;-146.25;100.00;70816.00;5065788;28;20044;-61
2024/01/05 05:27:38;;;;;;;13.35;2.53;;;;;;;-146.25;100.00;70816.00;5078043;28;20047;-62
2024/01/05 05:30:06;;;;;;;9.77;2.47;;;;;;;-146.25;100.00;70816.00;5074458;28;20025;-62
2024/01/05 05:32:31;;;;;;;14.57;2.60;;;;;;;-146.25;100.00;70816.00;5073167;28;21269;-62
2024/01/05 05:34:56;;;;;;;13.52;2.45;;;;;;;-146.25;100.00;70816.00;5074672;28;20128;-62
2024/01/05 05:37:22;;;;;;;11.23;2.30;;;;;;;-146.25;100.00;70816.00;5076511;28;20052;-61
2024/01/05 05:39:47;;;;;;;11.35;2.65;;;;;;;-146.25;100.00;70816.00;5073917;28;20040;-61
2024/01/05 05:42:12;;;;;;;11.30;2.50;;;;;;;-146.25;100.00;70816.00;5082148;28;20028;-61
2024/01/05 05:44:38;;;;;;;12.20;2.40;;;;;;;-146.25;100.00;70816.00;5085724;28;20033;-61
2024/01/05 05:47:03;;;;;;;11.57;2.17;;;;;;;-146.25;100.00;70816.00;5083856;28;20394;-61
2024/01/05 05:49:28;;;;;;;10.68;2.17;;;;;;;-146.25;100.00;70816.00;5077942;28;20136;-61
2024/01/05 05:51:54;;;;;;;8.27;1.90;;;;;;;-146.25;100.00;70816.00;5088058;28;20036;-61
2024/01/05 05:54:20;;;;;;;11.73;2.30;;;;;;;-146.25;100.00;70816.00;5089814;28;20043;-61
2024/01/05 05:56:45;;;;;;;10.52;2.10;;;;;;;-146.25;100.00;70816.00;5083746;28;20050;-61
2024/01/05 05:59:10;;;;;;;11.40;2.47;;;;;;;-146.25;100.00;70816.00;5081922;28;20052;-61
2024/01/05 06:01:36;;;;;;;13.80;2.25;;;;;;;-146.25;100.00;70816.00;5073855;28;20073;-60
2024/01/05 06:04:01;;;;;;;10.40;2.13;;;;;;;-146.25;100.00;70816.00;5070128;28;20036;-60
2024/01/05 06:06:26;;;;;;;10.35;2.10;;;;;;;-146.25;100.00;70816.00;5072363;28;20028;-61
2024/01/05 06:08:51;;;;;;;9.38;2.35;;;;;;;-146.25;100.00;70816.00;5077501;28;20070;-61
2024/01/05 06:11:18;;;;;;;15.52;2.95;;;;;;;-146.25;100.00;70816.00;5077180;28;20032;-60
2024/01/05 06:13:44;;;;;;;12.88;2.20;;;;;;;-146.25;100.00;70816.00;5069871;28;20036;-61
2024/01/05 06:16:09;;;;;;;11.68;2.40;;;;;;;-146.25;100.00;70816.00;5073259;28;20063;-61
2024/01/05 06:18:35;;;;;;;7.35;1.80;;;;;;;-146.25;100.00;70816.00;5072258;28;20434;-60
2024/01/05 06:21:00;;;;;;;8.50;1.52;;;;;;;-146.25;100.00;70816.00;5070846;28;20052;-61
2024/01/05 06:23:26;;;;;;;4.25;0.90;;;;;;;-146.25;100.00;70816.00;5070920;28;20067;-60
2024/01/05 06:25:51;;;;;;;7.68;1.17;;;;;;;-146.25;100.00;70816.00;5072793;28;20032;-61
2024/01/05 06:28:16;;;;;;;3.28;0.93;;;;;;;-146.25;100.00;70816.00;5067647;28;20491;-60
2024/01/05 06:30:42;;;;;;;2.70;0.82;;;;;;;-146.25;100.00;70816.00;5074988;28;20120;-61
2024/01/05 06:33:07;;;;;;;3.92;1.10;;;;;;;-146.25;100.00;70816.00;5071566;28;20028;-61
2024/01/05 06:35:32;;;;;;;1.50;0.80;;;;;;;-146.25;100.00;70816.00;5072813;28;20036;-60
2024/01/05 06:37:58;;;;;;;2.22;0.88;;;;;;;-146.25;100.00;70816.00;5070731;28;20435;-61
2024/01/05 06:40:23;;;;;;;0.77;0.50;;;;;;;-146.25;100.00;70816.00;5077139;28;20404;-60
2024/01/05 06:42:49;;;;;;;3.28;0.85;;;;;;;-146.25;100.00;70816.00;5090699;28;20040;-59
2024/01/05 06:45:14;;;;;;;1.98;0.80;;;;;;;-146.25;100.00;70816.00;5079481;28;20041;-60
2024/01/05 06:47:39;;;;;;;2.83;0.80;;;;;;;-146.25;100.00;70816.00;5082924;28;20431;-60
2024/01/05 06:50:05;;;;;;;3.60;1.00;;;;;;;-146.25;100.00;70816.00;5072601;28;20074;-61
2024/01/05 06:52:31;;;;;;;2.83;0.60;;;;;;;-146.25;100.00;70816.00;5070485;28;20059;-61
2024/01/05 06:54:56;;;;;;;2.35;0.60;;;;;;;-146.25;100.00;70816.00;5075260;28;20437;-61
2024/01/05 06:57:21;;;;;;;1.77;0.70;;;;;;;-146.25;100.00;70816.00;5075583;28;20060;-60
2024/01/05 06:59:47;;;;;;;2.38;0.93;;;;;;;-146.25;100.00;70816.00;5083170;28;20542;-62
2024/01/05 07:02:12;;;;;;;5.03;1.02;;;;;;;-146.25;100.00;70816.00;5081614;28;20028;-62
2024/01/05 07:04:37;;;;;;;2.25;0.88;;;;;;;-146.25;100.00;70816.00;5086752;28;20637;-62
2024/01/05 07:07:03;;;;;;;2.13;0.60;;;;;;;-146.25;100.00;70816.00;5068546;28;20541;-62
2024/01/05 07:09:28;;;;;;;7.38;1.30;;;;;;;-146.25;100.00;70816.00;5070569;28;20589;-63
2024/01/05 07:11:53;;;;;;;3.53;0.70;;;;;;;-146.25;100.00;70816.00;5068488;28;20532;-61
2024/01/05 07:14:19;;;;;;;4.32;1.08;;;;;;;-146.25;100.00;70816.00;5069697;28;20040;-61
2024/01/05 07:16:44;;;;;;;1.95;0.80;;;;;;;-146.25;100.00;70816.00;5070368;28;20044;-61
2024/01/05 07:19:09;;;;;;;1.42;0.90;;;;;;;-146.25;100.00;70816.00;5069715;28;20032;-61
2024/01/05 07:21:41;;;;;;;2.47;0.93;;;;;;;-146.25;100.00;70816.00;5070613;28;20044;-60
2024/01/05 07:24:07;;;;;;;1.95;0.85;;;;;;;-146.25;100.00;70816.00;5071659;28;20032;-62
2024/01/05 07:26:32;;;;;;;4.43;1.00;;;;;;;-146.25;100.00;70816.00;5070737;28;20035;-61
2024/01/05 07:28:58;;;;;;;2.58;1.00;;;;;;;-146.25;100.00;70816.00;5069177;28;20472;-62
2024/01/05 07:31:23;;;;;;;0.45;0.45;;;;;;;-146.25;100.00;70816.00;5069716;28;20381;-62
2024/01/05 07:33:48;;;;;;;1.83;0.88;;;;;;;-146.25;100.00;70816.00;5070282;28;20617;-61
2024/01/05 07:36:14;;;;;;;2.17;0.77;;;;;;;-146.25;100.00;70816.00;5068981;28;20123;-61
2024/01/05 07:38:39;;;;;;;2.78;0.90;;;;;;;-146.25;100.00;70816.00;5059537;28;20044;-61
2024/01/05 07:41:04;;;;;;;2.88;1.15;;;;;;;-146.25;100.00;70816.00;5070408;28;20036;-61
2024/01/05 07:43:30;;;;;;;2.58;0.93;;;;;;;-146.25;100.00;70816.00;5071829;28;21008;-61
2024/01/05 07:45:55;;;;;;;1.65;0.60;;;;;;;-146.25;100.00;70816.00;5073155;28;20044;-62
2024/01/05 07:48:23;;;;;;;2.45;1.23;;;;;;;-146.25;100.00;70816.00;5073108;28;20395;-61
2024/01/05 07:50:49;;;;;;;2.13;0.80;;;;;;;-146.25;100.00;70816.00;5071510;28;20036;-59
2024/01/05 07:53:14;;;;;;;3.58;0.90;;;;;;;-146.25;100.00;70816.00;5072879;28;20036;-61
2024/01/05 07:55:39;;;;;;;3.88;1.00;;;;;;;-146.25;100.00;70816.00;5072151;28;20036;-61
2024/01/05 07:58:05;;;;;;;4.78;1.00;;;;;;;-146.25;100.00;70816.00;5072204;28;20519;-60
2024/01/05 08:00:31;;;;;;;2.00;0.82;;;;;;;-146.25;100.00;70816.00;5074465;28;20040;-59
2024/01/05 08:02:57;;;;;;;3.72;1.27;;;;;;;-146.25;100.00;70816.00;5074980;28;20483;-59
2024/01/05 08:05:23;;;;;;;4.15;1.10;;;;;;;-146.25;100.00;70816.00;5070565;28;20029;-57
2024/01/05 08:07:49;;;;;;;5.20;1.00;;;;;;;-146.25;100.00;70816.00;5081697;28;20527;-60
2024/01/05 08:10:14;;;;;;;5.03;1.23;;;;;;;-146.25;100.00;70816.00;5085625;28;20041;-59
2024/01/05 08:12:39;;;;;;;3.33;1.10;;;;;;;-146.25;100.00;70816.00;5082426;28;20541;-59
2024/01/05 08:15:05;;;;;;;2.53;0.93;;;;;;;-146.25;100.00;70816.00;5074877;28;20056;-59
2024/01/05 08:17:30;;;;;;;1.38;0.90;;;;;;;-146.25;100.00;70816.00;5074910;28;20111;-59
2024/01/05 08:19:55;;;;;;;2.50;0.80;;;;;;;-146.25;100.00;70816.00;5069225;28;20690;-59
2024/01/05 08:22:21;;;;;;;2.40;0.90;;;;;;;-146.25;100.00;70816.00;5069129;28;20044;-59
2024/01/05 08:24:46;;;;;;;3.38;1.30;;;;;;;-146.25;100.00;70816.00;5076243;28;20487;-59
2024/01/05 08:27:12;;;;;;;3.88;1.30;;;;;;;-146.25;100.00;70816.00;5065758;28;20037;-60
2024/01/05 08:29:37;;;;;;;1.60;1.08;;;;;;;-146.25;100.00;70816.00;5072687;28;20080;-59
2024/01/05 08:32:02;;;;;;;3.72;1.05;;;;;;;-146.25;100.00;70816.00;5077838;28;20037;-60
2024/01/05 08:34:29;;;;;;;3.58;0.98;;;;;;;-146.25;100.00;70816.00;5070134;28;20091;-60
2024/01/05 08:36:54;;;;;;;1.73;0.90;;;;;;;-146.25;100.00;70816.00;5080030;28;20048;-60
2024/01/05 08:39:19;;;;;;;3.92;1.05;;;;;;;-146.25;100.00;70816.00;5067271;28;20036;-60
2024/01/05 08:41:45;;;;;;;3.28;0.85;;;;;;;-146.25;100.00;70816.00;5067094;28;20033;-59
2024/01/05 08:44:10;;;;;;;4.63;1.02;;;;;;;-146.25;100.00;70816.00;5068181;28;20360;-59
2024/01/05 08:46:36;;;;;;;2.45;1.00;;;;;;;-146.25;100.00;70816.00;5078653;28;20495;-59
2024/01/05 08:49:01;;;;;;;0.73;0.63;;;;;;;-146.25;100.00;70816.00;5075697;28;20043;-60
2024/01/05 08:51:26;;;;;;;6.15;1.15;;;;;;;-146.25;100.00;70816.00;5070011;28;20032;-60
2024/01/05 08:53:52;;;;;;;0.70;0.70;;;;;;;-146.25;100.00;70816.00;5079435;28;20051;-60
2024/01/05 08:56:18;;;;;;;3.28;0.98;;;;;;;-146.25;100.00;70816.00;5079394;28;20033;-59
2024/01/05 08:58:43;;;;;;;2.15;0.90;;;;;;;-146.25;100.00;70816.00;5080881;28;20068;-58
2024/01/05 09:01:08;;;;;;;3.83;0.90;;;;;;;-146.25;100.00;70816.00;5082356;28;20393;-60
2024/01/05 09:03:34;;;;;;;3.97;0.98;;;;;;;-146.25;100.00;70816.00;5088896;28;20036;-60
2024/01/05 09:05:59;;;;;;;1.15;0.70;;;;;;;-146.25;100.00;70816.00;5084702;28;20081;-59
2024/01/05 09:08:25;;;;;;;0.77;0.60;;;;;;;-146.25;100.00;70816.00;5082294;28;20376;-61
2024/01/05 09:10:50;;;;;;;3.00;0.82;;;;;;;-146.25;100.00;70816.00;5071931;28;20045;-60
2024/01/05 09:13:16;;;;;;;1.88;0.73;;;;;;;-146.25;100.00;70816.00;5070302;28;20036;-60
2024/01/05 09:15:41;;;;;;;0.52;0.52;;;;;;;-146.25;100.00;70816.00;5070942;28;20040;-60
2024/01/05 09:18:07;;;;;;;1.75;0.52;;;;;;;-146.25;100.00;70816.00;5073182;28;20031;-59
2024/01/05 09:20:32;;;;;;;1.90;0.73;;;;;;;-146.25;100.00;70816.00;5074586;28;20032;-59
2024/01/05 09:22:57;;;;;;;1.73;0.52;;;;;;;-146.25;100.00;70816.00;5075040;28;20474;-59
2024/01/05 09:25:23;;;;;;;3.45;0.85;;;;;;;-146.25;100.00;70816.00;5076285;28;20844;-60
2024/01/05 09:27:48;;;;;;;0.80;0.63;;;;;;;-146.25;100.00;70816.00;5071575;28;20041;-59
2024/01/05 09:30:14;;;;;;;1.55;0.80;;;;;;;-146.25;100.00;70816.00;5071873;28;20043;-59
2024/01/05 09:32:39;;;;;;;3.78;0.95;;;;;;;-146.25;100.00;70816.00;5070418;28;20411;-59
2024/01/05 09:35:05;;;;;;;1.17;0.68;;;;;;;-146.25;100.00;70816.00;5071740;28;20049;-59
2024/01/05 09:37:30;;;;;;;3.08;0.98;;;;;;;-146.25;100.00;70816.00;5086744;28;20056;-59
2024/01/05 09:39:55;;;;;;;2.45;1.10;;;;;;;-146.25;100.00;70816.00;5071326;28;20109;-60
2024/01/05 09:42:22;;;;;;;1.17;1.00;;;;;;;-146.25;100.00;70816.00;5089890;28;20036;-60
2024/01/05 09:44:48;;;;;;;2.22;1.15;;;;;;;-146.25;100.00;70816.00;5078312;28;20135;-59
2024/01/05 09:47:14;;;;;;;5.20;1.50;;;;;;;-146.25;100.00;70816.00;5076033;28;20123;-59
2024/01/05 09:49:44;;;;;;;3.20;1.30;;;;;;;-146.25;100.00;70816.00;5081171;28;20170;-59
2024/01/05 09:52:12;;;;;;;2.83;1.20;;;;;;;-146.25;100.00;70816.00;5079734;28;20073;-59
2024/01/05 09:54:37;;;;;;;3.25;1.30;;;;;;;-146.25;100.00;70816.00;5080963;28;20036;-59
2024/01/05 09:57:03;;;;;;;6.32;1.48;;;;;;;-146.25;100.00;70816.00;5073074;28;20448;-58
2024/01/05 09:59:29;;;;;;;3.72;1.25;;;;;;;-146.25;100.00;70816.00;5085557;28;20043;-58
2024/01/05 10:01:56;;;;;;;3.72;1.40;;;;;;;-146.25;100.00;70816.00;5083366;28;20380;-59
2024/01/05 10:04:22;;;;;;;2.42;1.45;;;;;;;-146.25;100.00;70816.00;5079003;28;20058;-60
2024/01/05 10:06:58;;;;;;;5.05;1.90;;;;;;;-146.25;100.00;70816.00;5082526;28;20171;-60
2024/01/05 10:09:23;;;;;;;3.40;1.50;;;;;;;-146.25;100.00;70816.00;5082100;28;20375;-59
2024/01/05 10:11:49;;;;;;;4.15;1.38;;;;;;;-146.25;100.00;70816.00;5074723;28;20518;-60
2024/01/05 10:14:14;;;;;;;4.68;1.60;;;;;;;-146.25;100.00;70816.00;5070293;28;20043;-59
2024/01/05 10:16:39;;;;;;;4.05;1.65;;;;;;;-146.25;100.00;70816.00;5078996;28;20849;-60
2024/01/05 10:19:20;;;;;;;6.22;1.80;;;;;;;-146.25;100.00;70816.00;5073303;28;20040;-60
2024/01/05 10:21:47;;;;;;;5.85;2.00;;;;;;;-146.25;100.00;70816.00;5075084;28;20040;-60
2024/01/05 10:24:23;;;;;;;6.35;1.70;;;;;;;-146.25;100.00;70816.00;5071681;28;20035;-60
2024/01/05 10:27:09;;;;;;;4.88;1.95;;;;;;;-146.25;100.00;70816.00;5074128;28;22828;-60
2024/01/05 10:29:42;;;;;;;3.83;1.88;;;;;;;-146.25;100.00;70816.00;5078436;28;20530;-59
2024/01/05 10:32:17;;;;;;;5.28;1.77;;;;;;;-146.25;100.00;70816.00;5072226;28;20036;-60
2024/01/05 10:34:48;;;;;;;3.72;1.70;;;;;;;-146.25;100.00;70816.00;5066433;28;20032;-59
2024/01/05 10:37:15;;;;;;;6.00;1.90;;;;;;;-146.25;100.00;70816.00;5076382;28;20055;-59
2024/01/05 10:39:58;;;;;;;4.20;1.83;;;;;;;-146.25;100.00;70816.00;5073038;28;20135;-59
2024/01/05 10:42:28;;;;;;;4.43;1.77;;;;;;;-146.25;100.00;70816.00;5078764;28;20036;-58
2024/01/05 10:44:55;;;;;;;5.90;2.00;;;;;;;-146.25;100.00;70816.00;5074628;28;20036;-58
2024/01/05 10:47:25;;;;;;;6.82;1.75;;;;;;;-146.25;100.00;70816.00;5073265;28;20036;-61
2024/01/05 10:49:52;;;;;;;4.47;1.80;;;;;;;-146.25;100.00;70816.00;5076936;28;20078;-60
2024/01/05 10:52:19;;;;;;;7.15;2.30;;;;;;;-146.25;100.00;70816.00;5074317;28;20039;-59
2024/01/05 10:54:47;;;;;;;8.85;2.50;;;;;;;-146.25;100.00;70816.00;5078614;28;20059;-60
2024/01/05 10:57:14;;;;;;;5.63;2.20;;;;;;;-146.25;100.00;70816.00;5075045;28;20048;-61
2024/01/05 10:59:43;;;;;;;4.78;1.65;;;;;;;-146.25;100.00;70816.00;5076609;28;20582;-60